Time;durP1;ratioP1;P1;durP2;ratioP2;P2;SDS_P1;SDS_P2;PMS_P1;PMS_P2;Temp;Humidity;BMP_temperature;BMP_pressure;BME280_temperature;BME280_humidity;BME280_pressure;Samples;Min_cycle;Max_cycle;Signal;HPM_P1;HPM_P2
2022/08/03 00:01:42;;;;;;;9.65;2.40;;;19.30;99.90;;;;;;5063041;28;20438;-73
2022/08/03 00:04:09;;;;;;;10.40;2.47;;;19.20;99.90;;;;;;5046917;28;20521;-76
2022/08/03 00:06:36;;;;;;;9.80;2.42;;;19.20;99.90;;;;;;5060425;28;20477;-73
2022/08/03 00:09:06;;;;;;;8.80;2.40;;;19.20;99.90;;;;;;5048714;28;20032;-75
2022/08/03 00:11:33;;;;;;;11.15;2.60;;;19.10;99.90;;;;;;5065515;28;20479;-75
2022/08/03 00:13:59;;;;;;;10.05;2.53;;;19.10;99.90;;;;;;5066082;28;20177;-74
2022/08/03 00:16:25;;;;;;;6.43;2.20;;;19.10;99.90;;;;;;5068461;28;20048;-74
2022/08/03 00:18:51;;;;;;;14.80;3.17;;;19.00;99.90;;;;;;5063711;28;20040;-73
2022/08/03 00:21:17;;;;;;;12.63;2.83;;;19.10;99.90;;;;;;5060354;28;20032;-75
2022/08/03 00:23:42;;;;;;;9.85;2.17;;;19.00;99.90;;;;;;5065236;28;20463;-76
2022/08/03 00:26:08;;;;;;;13.80;2.63;;;19.00;99.90;;;;;;5064314;28;20436;-74
2022/08/03 00:28:34;;;;;;;8.15;2.60;;;19.00;99.90;;;;;;5041311;28;20043;-74
2022/08/03 00:30:59;;;;;;;11.85;2.70;;;18.90;99.90;;;;;;5062807;28;20032;-75
2022/08/03 00:33:25;;;;;;;10.85;2.33;;;18.90;99.90;;;;;;5043903;28;20104;-75
2022/08/03 00:35:51;;;;;;;13.75;2.72;;;18.90;99.90;;;;;;5062569;28;20046;-74
2022/08/03 00:38:17;;;;;;;9.30;3.15;;;18.90;99.90;;;;;;5062392;28;20040;-73
2022/08/03 00:40:46;;;;;;;13.00;2.70;;;18.90;99.90;;;;;;5062658;28;20082;-75
2022/08/03 00:43:12;;;;;;;8.63;2.38;;;18.90;99.90;;;;;;5061188;28;20142;-74
2022/08/03 00:45:40;;;;;;;11.68;2.50;;;18.90;99.90;;;;;;5064697;28;20110;-75
2022/08/03 00:48:07;;;;;;;16.25;2.58;;;18.80;99.90;;;;;;5061521;28;20043;-75
2022/08/03 00:50:37;;;;;;;8.98;2.47;;;18.80;99.90;;;;;;5044111;28;20072;-73
2022/08/03 00:53:04;;;;;;;11.13;2.85;;;18.80;99.90;;;;;;5042752;28;20738;-75
2022/08/03 00:55:30;;;;;;;10.38;2.60;;;18.70;99.90;;;;;;5062035;28;20040;-74
2022/08/03 00:57:58;;;;;;;16.85;3.10;;;18.70;99.90;;;;;;5050116;28;20404;-74
2022/08/03 01:00:25;;;;;;;12.75;3.38;;;18.70;99.90;;;;;;5048004;28;20470;-75
2022/08/03 01:02:52;;;;;;;12.10;2.78;;;18.70;99.90;;;;;;5062605;28;20138;-74
2022/08/03 01:05:18;;;;;;;14.05;3.15;;;18.70;99.90;;;;;;5058502;28;20048;-74
2022/08/03 01:08:06;;;;;;;8.20;2.90;;;18.70;99.90;;;;;;5059720;28;20052;-76
2022/08/03 01:10:48;;;;;;;11.45;2.80;;;18.60;99.90;;;;;;5062342;28;20040;-75
2022/08/03 01:13:24;;;;;;;11.90;2.72;;;18.60;99.90;;;;;;5062345;28;20044;-73
2022/08/03 01:16:08;;;;;;;10.82;2.83;;;18.70;99.90;;;;;;5061554;28;20130;-75
2022/08/03 01:19:08;;;;;;;14.98;2.95;;;18.60;99.90;;;;;;5078632;28;20048;-75
2022/08/03 01:22:09;;;;;;;16.38;2.95;;;18.60;99.90;;;;;;5061095;28;20135;-76
2022/08/03 01:25:04;;;;;;;14.07;2.80;;;18.50;99.90;;;;;;5061417;28;20048;-75
2022/08/03 01:27:59;;;;;;;14.80;2.90;;;18.50;99.90;;;;;;5063374;28;20032;-73
2022/08/03 01:30:37;;;;;;;13.25;2.97;;;18.50;99.90;;;;;;5060847;28;20051;-73
2022/08/03 01:33:14;;;;;;;14.80;3.15;;;18.50;99.90;;;;;;5066643;28;20122;-76
2022/08/03 01:36:02;;;;;;;12.32;2.72;;;18.50;99.90;;;;;;5061584;28;20104;-75
2022/08/03 01:38:35;;;;;;;9.02;2.42;;;18.40;99.90;;;;;;5043740;28;20503;-73
2022/08/03 01:41:09;;;;;;;10.98;2.65;;;18.40;99.90;;;;;;5043541;28;20058;-74
2022/08/03 01:43:38;;;;;;;10.93;2.50;;;18.50;99.90;;;;;;5059199;28;20059;-74
2022/08/03 01:46:05;;;;;;;16.00;2.90;;;18.50;99.90;;;;;;5066098;28;20040;-76
2022/08/03 01:48:38;;;;;;;11.80;2.38;;;18.50;99.90;;;;;;5061301;28;20520;-76
2022/08/03 01:51:05;;;;;;;8.73;2.13;;;18.40;99.90;;;;;;5063422;28;20039;-76
2022/08/03 01:53:34;;;;;;;12.48;2.40;;;18.40;99.90;;;;;;5064395;28;20040;-75
2022/08/03 01:56:02;;;;;;;10.13;2.58;;;18.40;99.90;;;;;;5045818;28;20094;-73
2022/08/03 01:58:30;;;;;;;10.30;2.17;;;18.40;99.90;;;;;;5060400;28;20918;-74
2022/08/03 02:00:59;;;;;;;9.55;2.00;;;18.40;99.90;;;;;;5062244;28;20044;-74
2022/08/03 02:03:27;;;;;;;14.30;2.13;;;18.30;99.90;;;;;;5063770;28;20664;-75
2022/08/03 02:05:56;;;;;;;8.07;2.25;;;18.40;99.90;;;;;;5060527;28;20506;-75
2022/08/03 02:08:24;;;;;;;10.00;2.05;;;18.30;99.90;;;;;;5063912;28;20418;-73
2022/08/03 02:10:51;;;;;;;8.75;2.03;;;18.30;99.90;;;;;;5043438;28;20036;-74
2022/08/03 02:13:19;;;;;;;12.77;2.25;;;18.30;99.90;;;;;;5043670;28;20349;-74
2022/08/03 02:15:46;;;;;;;12.73;2.00;;;18.30;99.90;;;;;;5063441;28;20051;-75
2022/08/03 02:18:13;;;;;;;9.23;1.92;;;18.30;99.90;;;;;;5062528;28;20122;-74
2022/08/03 02:20:41;;;;;;;7.88;1.90;;;18.30;99.90;;;;;;5058346;28;20055;-73
2022/08/03 02:23:08;;;;;;;10.48;1.92;;;18.30;99.90;;;;;;5058294;28;20627;-76
2022/08/03 02:25:40;;;;;;;11.05;2.30;;;18.30;99.90;;;;;;5063314;28;20036;-75
2022/08/03 02:28:10;;;;;;;10.52;2.47;;;18.30;99.90;;;;;;5060260;28;20036;-76
2022/08/03 02:30:39;;;;;;;10.65;2.10;;;18.30;99.90;;;;;;5045417;28;20532;-75
2022/08/03 02:33:12;;;;;;;10.07;2.00;;;18.40;99.90;;;;;;5059398;28;20052;-75
2022/08/03 02:35:39;;;;;;;13.07;1.92;;;18.40;99.90;;;;;;5060742;28;20048;-74
2022/08/03 02:38:08;;;;;;;12.32;2.10;;;18.40;99.90;;;;;;5072960;28;20041;-73
2022/08/03 02:40:36;;;;;;;15.90;2.55;;;18.30;99.90;;;;;;5059838;28;20186;-73
2022/08/03 02:43:07;;;;;;;12.00;2.40;;;18.30;99.90;;;;;;5059898;28;20064;-76
2022/08/03 02:45:37;;;;;;;9.90;2.20;;;18.30;99.90;;;;;;5061884;28;20047;-76
2022/08/03 02:48:05;;;;;;;8.90;1.85;;;18.40;99.90;;;;;;5063612;28;20067;-75
2022/08/03 02:50:33;;;;;;;8.90;2.00;;;18.30;99.90;;;;;;5062374;28;20133;-75
2022/08/03 02:53:01;;;;;;;7.53;2.05;;;18.30;99.90;;;;;;5083804;28;20408;-73
2022/08/03 02:55:28;;;;;;;7.03;1.70;;;18.40;99.90;;;;;;5073490;28;20056;-74
2022/08/03 02:57:55;;;;;;;9.45;2.40;;;18.40;99.90;;;;;;5060530;28;20486;-73
2022/08/03 03:00:22;;;;;;;11.80;2.53;;;18.30;99.90;;;;;;5073224;28;20048;-71
2022/08/03 03:02:48;;;;;;;12.23;2.08;;;18.30;99.90;;;;;;5073737;28;20483;-73
2022/08/03 03:05:14;;;;;;;12.18;2.28;;;18.30;99.90;;;;;;5071760;28;20115;-75
2022/08/03 03:07:41;;;;;;;14.60;2.42;;;18.30;99.90;;;;;;5073609;28;20165;-74
2022/08/03 03:10:08;;;;;;;9.15;1.70;;;18.30;99.90;;;;;;5066278;28;20043;-73
2022/08/03 03:12:36;;;;;;;12.27;2.33;;;18.30;99.90;;;;;;5051832;28;20060;-74
2022/08/03 03:15:05;;;;;;;12.95;2.50;;;18.30;99.90;;;;;;5066273;28;20455;-72
2022/08/03 03:17:33;;;;;;;11.68;2.20;;;18.30;99.90;;;;;;5068293;28;20051;-74
2022/08/03 03:19:59;;;;;;;13.98;2.10;;;18.30;99.90;;;;;;5069834;28;20522;-75
2022/08/03 03:22:26;;;;;;;13.43;2.40;;;18.20;99.90;;;;;;5069868;28;20040;-73
2022/08/03 03:24:53;;;;;;;10.40;2.15;;;18.20;99.90;;;;;;5053743;28;20086;-75
2022/08/03 03:27:19;;;;;;;14.57;2.30;;;18.20;99.90;;;;;;5067549;28;20044;-75
2022/08/03 03:29:45;;;;;;;9.07;2.20;;;18.20;99.90;;;;;;5067259;28;20036;-76
2022/08/03 03:32:12;;;;;;;11.70;2.25;;;18.20;99.90;;;;;;5068046;28;20093;-74
2022/08/03 03:34:38;;;;;;;10.63;2.17;;;18.20;99.90;;;;;;5068757;28;20040;-75
2022/08/03 03:37:04;;;;;;;15.07;2.65;;;18.20;99.90;;;;;;5046698;28;20386;-74
2022/08/03 03:39:30;;;;;;;7.97;2.20;;;18.00;99.90;;;;;;5066170;28;20044;-74
2022/08/03 03:41:56;;;;;;;9.65;2.55;;;18.10;99.90;;;;;;5066201;28;20050;-76
2022/08/03 03:44:26;;;;;;;10.00;2.30;;;18.10;99.90;;;;;;5064180;28;20056;-74
2022/08/03 03:46:52;;;;;;;9.88;2.40;;;18.00;99.90;;;;;;5060473;28;20861;-73
2022/08/03 03:49:18;;;;;;;10.38;2.20;;;18.00;99.90;;;;;;5070398;28;20039;-73
2022/08/03 03:51:44;;;;;;;12.63;2.85;;;18.10;99.90;;;;;;5066890;28;20067;-74
2022/08/03 03:54:09;;;;;;;14.68;2.40;;;18.00;99.90;;;;;;5069758;28;20038;-73
2022/08/03 03:56:35;;;;;;;11.07;2.30;;;18.00;99.90;;;;;;5064380;28;20036;-74
2022/08/03 03:59:03;;;;;;;13.15;2.40;;;18.00;99.90;;;;;;5068047;28;20119;-75
2022/08/03 04:01:29;;;;;;;11.85;2.60;;;18.00;99.90;;;;;;5066464;28;20079;-76
2022/08/03 04:03:55;;;;;;;16.23;2.72;;;18.10;99.90;;;;;;5065035;28;20086;-74
2022/08/03 04:11:59;;;;;;;14.73;3.00;;;18.00;99.90;;;;;;5066491;28;20117;-75
2022/08/03 04:14:28;;;;;;;16.65;2.92;;;18.10;99.90;;;;;;5050755;28;20051;-76
2022/08/03 04:17:08;;;;;;;15.70;2.50;;;18.00;99.90;;;;;;5070362;28;20066;-74
2022/08/03 04:19:39;;;;;;;9.93;2.20;;;18.00;99.90;;;;;;5073200;28;20047;-72
2022/08/03 04:22:08;;;;;;;10.90;2.28;;;18.10;99.90;;;;;;5068569;28;20031;-72
2022/08/03 04:24:45;;;;;;;10.02;2.45;;;18.00;99.90;;;;;;5068606;28;20069;-76
2022/08/03 04:27:14;;;;;;;10.90;2.65;;;18.00;99.90;;;;;;5068891;28;20119;-75
2022/08/03 04:29:46;;;;;;;10.05;2.80;;;18.10;99.90;;;;;;5061564;28;20048;-75
2022/08/03 04:32:13;;;;;;;13.40;2.80;;;18.00;99.90;;;;;;5066328;28;20044;-73
2022/08/03 04:34:39;;;;;;;14.63;3.00;;;18.10;99.90;;;;;;5067320;28;20499;-75
2022/08/03 04:37:13;;;;;;;14.43;3.00;;;18.10;99.90;;;;;;5085826;28;20053;-74
2022/08/03 04:39:41;;;;;;;13.25;3.22;;;18.10;99.90;;;;;;5065677;28;20055;-73
2022/08/03 04:42:09;;;;;;;16.55;3.40;;;18.10;99.90;;;;;;5051156;28;20828;-73
2022/08/03 04:44:39;;;;;;;13.85;3.10;;;18.20;99.90;;;;;;5064856;28;20143;-74
2022/08/03 04:47:05;;;;;;;18.30;3.03;;;18.20;99.90;;;;;;5065831;28;20055;-73
2022/08/03 04:49:34;;;;;;;10.35;2.92;;;18.20;99.90;;;;;;5066345;28;20479;-74
2022/08/03 04:52:00;;;;;;;11.48;3.15;;;18.30;99.90;;;;;;5066066;28;20096;-73
2022/08/03 04:54:26;;;;;;;16.17;3.03;;;18.30;99.90;;;;;;5048718;28;20055;-75
2022/08/03 04:56:51;;;;;;;13.18;3.33;;;18.40;99.90;;;;;;5065861;28;20036;-75
2022/08/03 04:59:17;;;;;;;14.95;2.80;;;18.40;99.90;;;;;;5065575;28;20483;-73
2022/08/03 05:01:43;;;;;;;12.60;2.83;;;18.50;99.90;;;;;;5048753;28;20051;-75
2022/08/03 05:04:09;;;;;;;12.63;3.15;;;18.50;99.90;;;;;;5064698;28;20185;-75
2022/08/03 05:06:35;;;;;;;12.18;3.00;;;18.60;99.90;;;;;;5064306;28;20122;-74
2022/08/03 05:09:02;;;;;;;14.73;2.55;;;18.70;99.90;;;;;;5066411;28;20114;-74
2022/08/03 05:11:27;;;;;;;16.70;2.92;;;18.70;99.90;;;;;;5063147;28;20063;-74
2022/08/03 05:13:54;;;;;;;15.30;3.60;;;18.70;99.90;;;;;;5067728;28;20431;-75
2022/08/03 05:16:20;;;;;;;14.75;3.17;;;18.80;99.90;;;;;;5065333;28;20028;-75
2022/08/03 05:18:45;;;;;;;19.10;3.20;;;18.80;99.90;;;;;;5066851;28;20119;-74
2022/08/03 05:21:13;;;;;;;18.00;3.20;;;18.80;99.90;;;;;;5051224;28;20429;-75
2022/08/03 05:23:40;;;;;;;17.67;2.60;;;18.80;99.90;;;;;;5067904;28;20058;-76
2022/08/03 05:26:06;;;;;;;9.85;2.17;;;18.90;99.90;;;;;;5041924;28;20027;-74
2022/08/03 05:28:34;;;;;;;10.15;2.72;;;19.10;99.90;;;;;;5063858;28;20512;-77
2022/08/03 05:31:00;;;;;;;16.60;2.72;;;19.30;99.90;;;;;;5064937;28;20058;-78
2022/08/03 05:33:26;;;;;;;7.78;2.40;;;19.40;99.90;;;;;;5065826;28;20103;-77
2022/08/03 05:35:52;;;;;;;11.75;2.70;;;19.50;99.90;;;;;;5048849;28;20444;-77
2022/08/03 05:38:17;;;;;;;16.67;3.17;;;19.50;99.90;;;;;;5068233;28;20067;-77
2022/08/03 05:40:43;;;;;;;10.40;2.58;;;19.70;99.90;;;;;;5075741;28;20043;-77
2022/08/03 05:43:09;;;;;;;12.27;2.80;;;19.70;99.90;;;;;;5050730;28;20071;-76
2022/08/03 05:45:35;;;;;;;10.98;3.10;;;19.70;99.90;;;;;;5063204;28;20448;-77
2022/08/03 05:48:03;;;;;;;13.35;2.50;;;19.70;99.90;;;;;;5065841;28;20071;-76
2022/08/03 05:50:29;;;;;;;13.10;2.80;;;19.70;99.90;;;;;;5065402;28;20029;-78
2022/08/03 05:52:57;;;;;;;13.52;2.92;;;19.70;99.90;;;;;;5052515;28;20052;-76
2022/08/03 05:55:23;;;;;;;13.85;2.72;;;19.80;99.90;;;;;;5070136;28;20043;-76
2022/08/03 05:57:48;;;;;;;12.55;2.63;;;19.80;99.90;;;;;;5066639;28;20359;-76
2022/08/03 06:00:14;;;;;;;10.50;2.78;;;19.80;99.90;;;;;;5064870;28;20041;-75
2022/08/03 06:02:41;;;;;;;17.23;3.00;;;19.90;99.90;;;;;;5047542;28;20153;-76
2022/08/03 06:05:07;;;;;;;20.55;2.90;;;19.90;99.90;;;;;;5065437;28;20469;-77
2022/08/03 06:07:33;;;;;;;16.98;3.35;;;19.90;99.90;;;;;;5042080;28;20040;-76
2022/08/03 06:10:01;;;;;;;16.80;3.00;;;20.00;99.90;;;;;;5067635;28;20355;-75
2022/08/03 06:12:29;;;;;;;15.90;2.50;;;20.00;99.90;;;;;;5065498;28;20047;-76
2022/08/03 06:14:55;;;;;;;15.32;2.83;;;20.10;99.90;;;;;;5085508;28;20040;-76
2022/08/03 06:17:21;;;;;;;15.32;3.20;;;20.10;99.90;;;;;;5047678;28;20055;-76
2022/08/03 06:19:47;;;;;;;18.50;3.13;;;20.10;99.90;;;;;;5064583;28;20035;-77
2022/08/03 06:22:12;;;;;;;14.10;3.13;;;20.20;99.90;;;;;;5048241;28;20036;-75
2022/08/03 06:24:38;;;;;;;14.45;2.95;;;20.20;99.90;;;;;;5047326;28;20048;-76
2022/08/03 06:27:04;;;;;;;16.48;3.60;;;20.30;99.90;;;;;;5064360;28;20453;-75
2022/08/03 06:29:29;;;;;;;15.25;3.30;;;20.30;99.90;;;;;;5043455;28;20073;-75
2022/08/03 06:31:55;;;;;;;14.93;3.30;;;20.30;99.90;;;;;;5060349;28;20474;-73
2022/08/03 06:34:21;;;;;;;16.23;3.47;;;20.30;99.90;;;;;;5043702;28;20097;-73
2022/08/03 06:36:50;;;;;;;15.65;2.75;;;20.30;99.90;;;;;;5045983;28;20487;-73
2022/08/03 06:39:17;;;;;;;13.05;3.22;;;20.40;99.90;;;;;;5079657;28;20152;-73
2022/08/03 06:41:42;;;;;;;15.75;3.13;;;20.50;99.90;;;;;;5058241;28;20055;-71
2022/08/03 06:44:08;;;;;;;13.82;3.30;;;20.60;99.90;;;;;;5049889;28;20059;-72
2022/08/03 06:46:34;;;;;;;22.20;3.65;;;20.60;99.90;;;;;;5077170;28;20061;-72
2022/08/03 06:48:59;;;;;;;20.05;3.40;;;20.70;99.90;;;;;;5050860;28;20140;-73
2022/08/03 06:51:25;;;;;;;26.35;4.47;;;20.70;99.90;;;;;;5048021;28;20071;-72
2022/08/03 06:53:50;;;;;;;20.55;3.40;;;20.70;99.90;;;;;;5061894;28;20040;-73
2022/08/03 06:56:16;;;;;;;35.92;4.97;;;20.70;99.90;;;;;;5080932;28;20154;-73
2022/08/03 06:58:42;;;;;;;35.20;4.30;;;20.80;99.90;;;;;;5065115;28;20051;-73
2022/08/03 07:01:07;;;;;;;20.80;3.65;;;20.90;99.90;;;;;;5066507;28;20036;-72
2022/08/03 07:03:33;;;;;;;20.75;3.67;;;20.90;99.90;;;;;;5059534;28;20067;-73
2022/08/03 07:05:58;;;;;;;30.83;4.90;;;21.00;99.90;;;;;;5063042;28;20475;-74
2022/08/03 07:08:24;;;;;;;24.95;5.28;;;21.00;99.90;;;;;;5068117;28;20039;-73
2022/08/03 07:10:50;;;;;;;25.48;4.13;;;21.00;99.90;;;;;;5050886;28;22045;-76
2022/08/03 07:13:15;;;;;;;16.15;3.35;;;21.10;99.90;;;;;;5067328;28;20082;-74
2022/08/03 07:15:41;;;;;;;16.02;3.38;;;21.20;99.90;;;;;;5059350;28;20492;-76
2022/08/03 07:18:07;;;;;;;17.15;3.50;;;21.20;99.90;;;;;;5051249;28;20047;-75
2022/08/03 07:20:33;;;;;;;17.40;3.35;;;21.30;99.90;;;;;;5049213;28;20100;-74
2022/08/03 07:22:58;;;;;;;22.77;3.90;;;21.40;99.90;;;;;;5061845;28;20151;-74
2022/08/03 07:25:24;;;;;;;13.60;3.35;;;21.40;99.90;;;;;;5064035;28;20320;-74
2022/08/03 07:27:50;;;;;;;16.63;3.17;;;21.50;99.90;;;;;;5061968;28;20123;-72
2022/08/03 07:30:15;;;;;;;24.25;3.80;;;21.60;99.90;;;;;;5063310;28;20044;-74
2022/08/03 07:32:42;;;;;;;17.20;3.72;;;21.60;99.90;;;;;;5044228;28;20075;-74
2022/08/03 07:35:09;;;;;;;13.38;3.30;;;21.70;99.90;;;;;;5066222;28;20036;-73
2022/08/03 07:37:35;;;;;;;16.45;3.60;;;21.80;99.90;;;;;;5070513;28;20056;-75
2022/08/03 07:40:03;;;;;;;15.82;3.55;;;21.80;99.90;;;;;;5086353;28;20031;-74
2022/08/03 07:42:29;;;;;;;17.00;3.65;;;21.90;99.90;;;;;;5065001;28;20408;-73
2022/08/03 07:44:55;;;;;;;23.55;3.65;;;21.90;99.90;;;;;;5056324;28;20101;-77
2022/08/03 07:47:24;;;;;;;18.00;3.85;;;21.90;99.90;;;;;;5052624;28;20062;-75
2022/08/03 07:49:50;;;;;;;10.85;3.50;;;22.00;99.90;;;;;;5087185;28;20032;-74
2022/08/03 07:55:00;;;;;;;17.93;3.70;;;22.10;99.90;;;;;;5073842;28;20534;-75
2022/08/03 07:57:25;;;;;;;41.67;5.28;;;22.20;99.90;;;;;;5055007;28;20139;-76
2022/08/03 07:59:51;;;;;;;23.23;4.07;;;22.30;99.90;;;;;;5070159;28;20429;-76
2022/08/03 08:02:17;;;;;;;18.33;3.90;;;22.30;99.90;;;;;;5071184;28;20040;-74
2022/08/03 08:04:42;;;;;;;17.90;3.58;;;22.30;99.90;;;;;;5068685;28;20072;-73
2022/08/03 08:07:08;;;;;;;37.78;5.95;;;22.40;99.90;;;;;;5054262;28;20052;-75
2022/08/03 08:09:34;;;;;;;32.78;5.03;;;22.50;99.90;;;;;;5054899;28;20036;-77
2022/08/03 08:12:00;;;;;;;36.75;5.68;;;22.50;99.90;;;;;;5068966;28;21064;-74
2022/08/03 08:14:25;;;;;;;22.83;4.00;;;22.70;99.90;;;;;;5071369;28;20134;-74
2022/08/03 08:16:51;;;;;;;17.50;3.65;;;22.90;99.90;;;;;;5074097;28;20032;-74
2022/08/03 08:19:17;;;;;;;17.35;3.85;;;22.90;99.90;;;;;;5075709;28;20482;-75
2022/08/03 08:21:43;;;;;;;31.40;4.82;;;22.90;99.90;;;;;;5072944;28;20511;-74
2022/08/03 08:24:09;;;;;;;14.88;3.50;;;23.10;99.90;;;;;;5069255;28;20036;-74
2022/08/03 08:26:35;;;;;;;77.25;8.25;;;23.10;99.90;;;;;;5067974;28;20032;-76
2022/08/03 08:29:01;;;;;;;22.58;4.22;;;23.20;99.90;;;;;;5067914;28;20127;-75
2022/08/03 08:31:27;;;;;;;14.55;3.53;;;23.30;99.90;;;;;;5054317;28;20181;-77
2022/08/03 08:33:53;;;;;;;22.42;4.18;;;23.30;99.90;;;;;;5053361;28;21085;-75
2022/08/03 08:36:19;;;;;;;13.63;3.50;;;23.50;99.90;;;;;;5071799;28;20123;-78
2022/08/03 08:38:45;;;;;;;17.42;3.95;;;23.50;99.90;;;;;;5070861;28;20160;-79
2022/08/03 08:41:11;;;;;;;16.70;3.60;;;23.60;99.90;;;;;;5068947;28;20036;-82
2022/08/03 08:43:37;;;;;;;18.67;3.80;;;23.70;99.90;;;;;;5056367;28;20078;-74
2022/08/03 08:46:07;;;;;;;12.82;3.35;;;23.80;99.90;;;;;;5063908;28;20391;-76
2022/08/03 08:48:34;;;;;;;16.33;3.92;;;23.70;99.90;;;;;;5070551;28;20043;-79
2022/08/03 08:51:00;;;;;;;17.08;3.75;;;23.70;99.90;;;;;;5089346;28;20071;-75
2022/08/03 08:53:32;;;;;;;13.95;3.50;;;23.80;99.90;;;;;;5073216;28;20540;-75
2022/08/03 08:56:02;;;;;;;16.33;3.60;;;24.00;99.90;;;;;;5072865;28;20339;-76
2022/08/03 08:58:43;;;;;;;14.25;3.78;;;24.10;99.90;;;;;;5070958;28;20056;-77
2022/08/03 09:01:09;;;;;;;24.98;4.75;;;24.20;99.90;;;;;;5071851;28;20048;-80
2022/08/03 09:03:35;;;;;;;20.52;3.92;;;24.10;99.90;;;;;;5066829;28;20058;-76
2022/08/03 09:06:04;;;;;;;17.88;3.75;;;24.10;99.90;;;;;;5050854;28;20032;-73
2022/08/03 09:08:31;;;;;;;18.13;3.97;;;24.10;99.90;;;;;;5064573;28;20162;-74
2022/08/03 09:10:58;;;;;;;15.02;3.42;;;24.10;99.90;;;;;;5051300;28;20070;-76
2022/08/03 09:13:26;;;;;;;17.65;3.88;;;24.40;99.90;;;;;;5067850;28;20486;-77
2022/08/03 09:16:14;;;;;;;17.38;3.85;;;24.60;99.90;;;;;;5051636;28;20056;-75
2022/08/03 09:18:49;;;;;;;17.65;4.18;;;24.70;99.90;;;;;;5043780;28;20051;-78
2022/08/03 09:21:16;;;;;;;14.27;3.40;;;24.60;99.90;;;;;;5062765;28;20035;-75
2022/08/03 09:23:47;;;;;;;18.15;3.80;;;24.70;99.90;;;;;;5043413;28;20044;-78
2022/08/03 09:26:27;;;;;;;19.27;3.92;;;24.90;99.90;;;;;;5047665;28;20122;-78
2022/08/03 09:29:01;;;;;;;20.85;3.95;;;25.00;99.90;;;;;;5059303;28;20032;-76
2022/08/03 09:31:36;;;;;;;19.55;4.07;;;25.20;99.90;;;;;;5053011;28;20044;-78
2022/08/03 09:34:07;;;;;;;17.10;3.90;;;25.20;99.90;;;;;;5043887;28;20778;-76
2022/08/03 09:36:38;;;;;;;20.65;4.03;;;25.30;99.90;;;;;;5062463;28;20039;-76
2022/08/03 09:39:10;;;;;;;18.92;4.47;;;25.30;99.90;;;;;;5067773;28;20042;-74
2022/08/03 09:41:40;;;;;;;22.33;3.75;;;25.40;99.90;;;;;;5047646;28;20036;-72
2022/08/03 09:44:07;;;;;;;13.13;3.88;;;25.60;99.90;;;;;;5067513;28;20766;-73
2022/08/03 09:46:50;;;;;;;15.00;3.20;;;25.60;99.90;;;;;;5065144;28;20066;-74
2022/08/03 09:49:16;;;;;;;18.80;4.15;;;25.50;99.90;;;;;;5065870;28;20050;-73
2022/08/03 09:51:43;;;;;;;17.67;4.10;;;25.60;99.90;;;;;;5070712;28;20395;-73
2022/08/03 09:54:08;;;;;;;14.10;4.30;;;25.60;99.90;;;;;;5071541;28;20073;-73
2022/08/03 09:56:46;;;;;;;17.65;4.35;;;25.60;99.90;;;;;;5054347;28;20051;-73
2022/08/03 09:59:26;;;;;;;17.73;3.50;;;25.70;99.90;;;;;;5052535;28;20070;-73
2022/08/03 10:01:52;;;;;;;17.70;3.50;;;25.80;99.90;;;;;;5071075;28;20062;-74
2022/08/03 10:04:18;;;;;;;17.08;4.03;;;26.00;99.90;;;;;;5053490;28;20071;-72
2022/08/03 10:06:59;;;;;;;17.00;3.40;;;26.10;99.90;;;;;;5065763;28;20074;-72
2022/08/03 10:09:25;;;;;;;18.33;4.25;;;26.30;99.90;;;;;;5067800;28;20024;-74
2022/08/03 10:11:51;;;;;;;12.38;3.58;;;26.50;99.90;;;;;;5052837;28;20482;-70
2022/08/03 10:14:17;;;;;;;18.48;3.75;;;26.40;99.90;;;;;;5066870;28;20056;-72
2022/08/03 10:16:44;;;;;;;17.38;4.10;;;26.60;99.90;;;;;;5073312;28;20067;-71
2022/08/03 10:19:09;;;;;;;14.20;3.33;;;26.50;99.90;;;;;;5069112;28;20051;-72
2022/08/03 10:21:43;;;;;;;15.02;3.40;;;26.50;99.90;;;;;;5066407;28;20040;-72
2022/08/03 10:24:11;;;;;;;21.45;3.97;;;26.80;99.90;;;;;;5066640;28;20050;-72
2022/08/03 10:26:40;;;;;;;16.88;3.45;;;26.80;99.90;;;;;;5066321;28;20045;-73
2022/08/03 10:29:12;;;;;;;19.70;3.90;;;27.10;99.90;;;;;;5068512;28;20035;-74
2022/08/03 10:31:39;;;;;;;14.93;3.47;;;27.00;99.90;;;;;;5065385;28;20116;-73
2022/08/03 10:34:16;;;;;;;12.38;3.40;;;27.40;99.90;;;;;;5063793;28;20414;-76
2022/08/03 10:36:42;;;;;;;17.05;3.40;;;27.30;99.90;;;;;;5070056;28;20486;-73
2022/08/03 10:39:09;;;;;;;17.05;3.35;;;27.10;99.90;;;;;;5066618;28;20866;-75
2022/08/03 10:41:39;;;;;;;20.33;4.05;;;27.20;99.90;;;;;;5087390;28;20036;-74
2022/08/03 10:44:09;;;;;;;17.15;3.95;;;27.40;99.90;;;;;;5069117;28;20036;-73
2022/08/03 10:46:37;;;;;;;19.83;3.90;;;27.50;99.90;;;;;;5060073;28;20036;-74
2022/08/03 10:49:04;;;;;;;17.75;4.00;;;27.70;99.90;;;;;;5066563;28;20040;-73
2022/08/03 10:51:31;;;;;;;25.70;4.38;;;27.60;99.90;;;;;;5054796;28;20040;-74
2022/08/03 10:54:01;;;;;;;15.35;3.95;;;27.80;99.90;;;;;;5068723;28;20047;-71
2022/08/03 10:59:19;;;;;;;19.88;3.85;;;28.00;99.90;;;;;;5054172;28;20490;-74
2022/08/03 11:01:55;;;;;;;18.15;3.80;;;28.00;99.90;;;;;;5081244;28;20370;-73
2022/08/03 11:04:23;;;;;;;23.55;4.63;;;28.20;99.90;;;;;;5060267;28;20047;-72
2022/08/03 11:07:14;;;;;;;21.45;4.45;;;28.50;99.90;;;;;;5082472;28;20501;-73
2022/08/03 11:09:41;;;;;;;23.10;4.22;;;28.70;99.90;;;;;;5066526;28;20506;-72
2022/08/03 11:12:24;;;;;;;19.30;4.45;;;28.70;99.90;;;;;;5051100;28;20050;-73
2022/08/03 11:14:50;;;;;;;24.58;5.60;;;28.60;99.90;;;;;;5062591;28;20036;-74
2022/08/03 11:17:16;;;;;;;20.98;4.78;;;28.80;99.90;;;;;;5063484;28;20064;-75
2022/08/03 11:19:46;;;;;;;16.42;4.55;;;28.80;99.90;;;;;;5049478;28;20114;-74
2022/08/03 11:22:12;;;;;;;17.27;4.13;;;28.90;99.90;;;;;;5072562;28;20118;-74
2022/08/03 11:24:42;;;;;;;16.00;4.35;;;29.20;99.90;;;;;;5065413;28;20055;-74
2022/08/03 11:27:17;;;;;;;22.98;5.28;;;29.40;99.90;;;;;;5066469;28;20120;-75
2022/08/03 11:30:18;;;;;;;27.02;5.18;;;29.00;99.90;;;;;;5052025;28;20136;-74
2022/08/03 11:32:44;;;;;;;25.63;4.75;;;29.10;99.90;;;;;;5008208;28;20053;-75
2022/08/03 11:35:16;;;;;;;20.45;4.70;;;29.20;99.90;;;;;;5014615;28;20041;-74
2022/08/03 11:37:56;;;;;;;19.42;5.18;;;29.30;99.90;;;;;;5012156;28;20084;-74
2022/08/03 11:40:41;;;;;;;19.85;5.00;;;29.40;99.90;;;;;;5007018;28;20060;-75
2022/08/03 11:43:25;;;;;;;20.92;4.80;;;29.40;99.90;;;;;;5009546;28;20037;-73
2022/08/03 11:45:58;;;;;;;21.90;5.18;;;29.60;99.90;;;;;;5007537;28;20172;-74
2022/08/03 11:48:33;;;;;;;23.27;4.50;;;29.70;99.90;;;;;;5018817;28;20549;-75
2022/08/03 11:51:04;;;;;;;25.25;5.22;;;29.70;99.90;;;;;;5002461;28;20508;-75
2022/08/03 11:53:30;;;;;;;20.48;4.35;;;29.70;99.90;;;;;;4992585;28;20041;-74
2022/08/03 11:56:04;;;;;;;18.85;4.72;;;30.10;99.90;;;;;;5014153;28;20923;-74
2022/08/03 11:58:30;;;;;;;24.23;4.88;;;30.20;99.90;;;;;;5009905;28;20084;-74
2022/08/03 12:01:06;;;;;;;22.15;4.32;;;30.40;99.90;;;;;;4989845;28;20520;-76
2022/08/03 12:03:33;;;;;;;24.75;5.15;;;30.40;99.90;;;;;;5008154;28;20056;-74
2022/08/03 12:08:43;;;;;;;23.50;5.10;;;30.70;99.90;;;;;;5107323;27;1247158;-72
2022/08/03 12:11:11;;;;;;;23.27;4.80;;;31.00;99.90;;;;;;5122301;27;20299;-72
2022/08/03 12:13:43;;;;;;;22.10;4.55;;;31.40;99.90;;;;;;5106291;27;20183;-75
2022/08/03 12:16:17;;;;;;;28.85;4.63;;;31.50;99.90;;;;;;5149276;27;20057;-73
2022/08/03 12:18:43;;;;;;;23.02;4.60;;;31.80;99.90;;;;;;5111372;27;20401;-75
2022/08/03 12:21:11;;;;;;;21.80;4.88;;;31.70;99.90;;;;;;5121265;27;20045;-76
2022/08/03 12:23:37;;;;;;;19.58;4.50;;;31.70;99.90;;;;;;5096714;27;20043;-76
2022/08/03 12:26:08;;;;;;;18.35;3.90;;;31.80;99.90;;;;;;5100203;27;20110;-76
2022/08/03 12:28:35;;;;;;;25.60;4.97;;;31.80;99.90;;;;;;5117593;27;20042;-75
2022/08/03 12:31:05;;;;;;;25.80;4.90;;;32.10;99.90;;;;;;5106461;27;20393;-77
2022/08/03 12:33:31;;;;;;;20.33;4.25;;;32.20;99.90;;;;;;5099520;27;22118;-75
2022/08/03 12:36:09;;;;;;;20.58;4.32;;;32.30;99.90;;;;;;5116758;27;20140;-74
2022/08/03 12:38:37;;;;;;;21.45;4.35;;;32.50;99.90;;;;;;5121453;27;20039;-76
2022/08/03 12:41:10;;;;;;;23.75;4.78;;;32.40;99.90;;;;;;5106979;27;20035;-76
2022/08/03 12:43:36;;;;;;;19.23;5.15;;;32.30;99.90;;;;;;5106007;28;20065;-78
2022/08/03 12:46:18;;;;;;;20.83;4.90;;;32.30;99.90;;;;;;5114112;27;20493;-76
2022/08/03 12:49:03;;;;;;;23.40;5.00;;;32.50;99.90;;;;;;5115388;27;20202;-77
2022/08/03 12:51:31;;;;;;;23.08;4.80;;;32.20;99.90;;;;;;5102824;27;20381;-76
2022/08/03 12:53:58;;;;;;;20.90;4.85;;;32.10;99.90;;;;;;5120145;27;20322;-77
2022/08/03 12:56:24;;;;;;;23.90;5.07;;;31.90;99.90;;;;;;5107897;27;20043;-77
2022/08/03 12:58:50;;;;;;;18.95;4.57;;;31.70;99.90;;;;;;5129444;27;20226;-75
2022/08/03 13:01:16;;;;;;;18.17;4.43;;;31.80;99.90;;;;;;5122989;27;20066;-76